sensor_id;sensor_type;location;lat;lon;timestamp;pressure;altitude;pressure_sealevel;temperature;humidity
64827;BME280;51265;53.972;12.286;2023-05-07T00:00:34;101661.25;;;7.23;100.00
64827;BME280;51265;53.972;12.286;2023-05-07T00:03:00;101660.63;;;7.16;100.00
64827;BME280;51265;53.972;12.286;2023-05-07T00:05:27;101651.81;;;7.14;100.00
64827;BME280;51265;53.972;12.286;2023-05-07T00:07:53;101657.88;;;7.16;100.00
64827;BME280;51265;53.972;12.286;2023-05-07T00:10:19;101656.47;;;7.13;100.00
64827;BME280;51265;53.972;12.286;2023-05-07T00:12:45;101659.59;;;7.22;100.00
64827;BME280;51265;53.972;12.286;2023-05-07T00:15:11;101660.63;;;7.16;100.00
64827;BME280;51265;53.972;12.286;2023-05-07T00:17:38;101663.44;;;7.21;100.00
64827;BME280;51265;53.972;12.286;2023-05-07T00:20:04;101667.00;;;7.21;100.00
64827;BME280;51265;53.972;12.286;2023-05-07T00:22:31;101661.78;;;7.20;100.00
64827;BME280;51265;53.972;12.286;2023-05-07T00:24:58;101670.56;;;7.22;100.00
64827;BME280;51265;53.972;12.286;2023-05-07T00:27:24;101673.91;;;7.24;100.00
64827;BME280;51265;53.972;12.286;2023-05-07T00:29:51;101672.72;;;7.20;100.00
64827;BME280;51265;53.972;12.286;2023-05-07T00:32:17;101671.06;;;7.19;100.00
64827;BME280;51265;53.972;12.286;2023-05-07T00:34:43;101668.41;;;7.24;100.00
64827;BME280;51265;53.972;12.286;2023-05-07T00:37:10;101663.44;;;7.21;100.00
64827;BME280;51265;53.972;12.286;2023-05-07T00:39:37;101661.50;;;7.21;100.00
64827;BME280;51265;53.972;12.286;2023-05-07T00:42:04;101666.25;;;7.26;100.00
64827;BME280;51265;53.972;12.286;2023-05-07T00:44:31;101667.59;;;7.23;100.00
64827;BME280;51265;53.972;12.286;2023-05-07T00:46:57;101668.47;;;7.29;100.00
64827;BME280;51265;53.972;12.286;2023-05-07T00:49:41;101666.84;;;7.28;100.00
64827;BME280;51265;53.972;12.286;2023-05-07T00:52:14;101665.41;;;7.26;100.00
64827;BME280;51265;53.972;12.286;2023-05-07T00:54:41;101666.72;;;7.23;100.00
64827;BME280;51265;53.972;12.286;2023-05-07T00:57:09;101670.22;;;7.18;100.00
64827;BME280;51265;53.972;12.286;2023-05-07T00:59:37;101655.78;;;7.06;100.00
64827;BME280;51265;53.972;12.286;2023-05-07T01:02:03;101660.38;;;7.01;100.00
64827;BME280;51265;53.972;12.286;2023-05-07T01:04:30;101649.50;;;6.89;100.00
64827;BME280;51265;53.972;12.286;2023-05-07T01:06:57;101652.56;;;6.92;100.00
64827;BME280;51265;53.972;12.286;2023-05-07T01:09:24;101654.41;;;7.04;100.00
64827;BME280;51265;53.972;12.286;2023-05-07T01:11:52;101646.53;;;6.73;100.00
64827;BME280;51265;53.972;12.286;2023-05-07T01:14:18;101640.53;;;6.60;100.00
64827;BME280;51265;53.972;12.286;2023-05-07T01:16:47;101643.09;;;6.49;100.00
64827;BME280;51265;53.972;12.286;2023-05-07T01:19:15;101647.00;;;6.54;100.00
64827;BME280;51265;53.972;12.286;2023-05-07T01:21:48;101641.84;;;6.40;100.00
64827;BME280;51265;53.972;12.286;2023-05-07T01:24:16;101645.53;;;6.34;100.00
64827;BME280;51265;53.972;12.286;2023-05-07T01:26:43;101645.84;;;6.21;100.00
64827;BME280;51265;53.972;12.286;2023-05-07T01:29:15;101642.06;;;6.10;100.00
64827;BME280;51265;53.972;12.286;2023-05-07T01:31:42;101641.06;;;5.99;100.00
64827;BME280;51265;53.972;12.286;2023-05-07T01:34:09;101642.63;;;5.84;100.00
64827;BME280;51265;53.972;12.286;2023-05-07T01:36:38;101648.72;;;5.74;100.00
64827;BME280;51265;53.972;12.286;2023-05-07T01:39:06;101646.00;;;5.62;100.00
64827;BME280;51265;53.972;12.286;2023-05-07T01:41:35;101647.69;;;5.52;100.00
64827;BME280;51265;53.972;12.286;2023-05-07T01:44:03;101658.03;;;5.49;100.00
64827;BME280;51265;53.972;12.286;2023-05-07T01:46:30;101651.84;;;5.42;100.00
64827;BME280;51265;53.972;12.286;2023-05-07T01:48:57;101652.34;;;5.39;100.00
64827;BME280;51265;53.972;12.286;2023-05-07T01:51:23;101659.47;;;5.40;100.00
64827;BME280;51265;53.972;12.286;2023-05-07T01:53:52;101663.75;;;5.36;100.00
64827;BME280;51265;53.972;12.286;2023-05-07T01:56:20;101663.16;;;5.34;100.00
64827;BME280;51265;53.972;12.286;2023-05-07T01:58:47;101666.25;;;5.38;100.00
64827;BME280;51265;53.972;12.286;2023-05-07T02:01:14;101672.06;;;5.41;100.00
64827;BME280;51265;53.972;12.286;2023-05-07T02:03:41;101676.09;;;5.50;100.00
64827;BME280;51265;53.972;12.286;2023-05-07T02:06:14;101676.09;;;5.50;100.00
64827;BME280;51265;53.972;12.286;2023-05-07T02:08:41;101672.78;;;5.48;100.00
64827;BME280;51265;53.972;12.286;2023-05-07T02:11:07;101661.59;;;5.38;100.00
64827;BME280;51265;53.972;12.286;2023-05-07T02:13:36;101665.31;;;5.32;100.00
64827;BME280;51265;53.972;12.286;2023-05-07T02:16:02;101665.88;;;5.34;100.00
64827;BME280;51265;53.972;12.286;2023-05-07T02:18:29;101668.50;;;5.29;100.00
64827;BME280;51265;53.972;12.286;2023-05-07T02:20:55;101665.66;;;5.24;100.00
64827;BME280;51265;53.972;12.286;2023-05-07T02:23:21;101681.09;;;5.30;100.00
64827;BME280;51265;53.972;12.286;2023-05-07T02:25:47;101678.72;;;5.45;100.00
64827;BME280;51265;53.972;12.286;2023-05-07T02:28:14;101678.94;;;5.56;100.00
64827;BME280;51265;53.972;12.286;2023-05-07T02:30:49;101690.09;;;5.66;100.00
64827;BME280;51265;53.972;12.286;2023-05-07T02:33:16;101686.28;;;5.67;100.00
64827;BME280;51265;53.972;12.286;2023-05-07T02:35:42;101679.53;;;5.69;100.00
64827;BME280;51265;53.972;12.286;2023-05-07T02:38:10;101686.53;;;5.77;100.00
64827;BME280;51265;53.972;12.286;2023-05-07T02:40:37;101679.75;;;5.68;100.00
64827;BME280;51265;53.972;12.286;2023-05-07T02:43:06;101675.34;;;5.67;100.00
64827;BME280;51265;53.972;12.286;2023-05-07T02:49:35;101689.34;;;5.82;100.00
64827;BME280;51265;53.972;12.286;2023-05-07T02:52:02;101688.88;;;5.85;100.00
64827;BME280;51265;53.972;12.286;2023-05-07T02:54:29;101686.72;;;5.87;100.00
64827;BME280;51265;53.972;12.286;2023-05-07T02:56:55;101696.56;;;5.88;100.00
64827;BME280;51265;53.972;12.286;2023-05-07T02:59:22;101696.56;;;5.88;100.00
64827;BME280;51265;53.972;12.286;2023-05-07T03:01:48;101697.31;;;5.95;100.00
64827;BME280;51265;53.972;12.286;2023-05-07T03:04:15;101700.06;;;5.95;100.00
64827;BME280;51265;53.972;12.286;2023-05-07T03:06:41;101692.56;;;6.03;100.00
64827;BME280;51265;53.972;12.286;2023-05-07T03:09:07;101698.59;;;6.05;100.00
64827;BME280;51265;53.972;12.286;2023-05-07T03:11:35;101702.03;;;6.12;100.00
64827;BME280;51265;53.972;12.286;2023-05-07T03:14:02;101707.94;;;6.20;100.00
64827;BME280;51265;53.972;12.286;2023-05-07T03:16:28;101703.16;;;6.28;100.00
64827;BME280;51265;53.972;12.286;2023-05-07T03:18:54;101711.47;;;6.33;100.00
64827;BME280;51265;53.972;12.286;2023-05-07T03:21:21;101701.53;;;6.43;100.00
64827;BME280;51265;53.972;12.286;2023-05-07T03:23:47;101708.19;;;6.47;100.00
64827;BME280;51265;53.972;12.286;2023-05-07T03:26:13;101702.81;;;6.53;100.00
64827;BME280;51265;53.972;12.286;2023-05-07T03:28:39;101707.91;;;6.61;100.00
64827;BME280;51265;53.972;12.286;2023-05-07T03:31:10;101702.66;;;6.59;100.00
64827;BME280;51265;53.972;12.286;2023-05-07T03:33:49;101705.47;;;6.64;100.00
64827;BME280;51265;53.972;12.286;2023-05-07T03:36:15;101698.13;;;6.65;100.00
64827;BME280;51265;53.972;12.286;2023-05-07T03:38:42;101703.59;;;6.65;100.00
64827;BME280;51265;53.972;12.286;2023-05-07T03:41:08;101694.78;;;6.63;100.00
64827;BME280;51265;53.972;12.286;2023-05-07T03:43:34;101692.78;;;6.58;100.00
64827;BME280;51265;53.972;12.286;2023-05-07T03:46:06;101686.88;;;6.49;100.00
64827;BME280;51265;53.972;12.286;2023-05-07T03:48:33;101691.09;;;6.40;100.00
64827;BME280;51265;53.972;12.286;2023-05-07T03:50:59;101695.88;;;6.33;100.00
64827;BME280;51265;53.972;12.286;2023-05-07T03:53:29;101695.88;;;6.33;100.00
64827;BME280;51265;53.972;12.286;2023-05-07T03:55:56;101702.91;;;6.29;100.00
64827;BME280;51265;53.972;12.286;2023-05-07T03:58:23;101700.19;;;6.29;100.00
64827;BME280;51265;53.972;12.286;2023-05-07T04:00:50;101702.81;;;6.24;100.00
64827;BME280;51265;53.972;12.286;2023-05-07T04:03:26;101705.47;;;6.19;100.00
64827;BME280;51265;53.972;12.286;2023-05-07T04:05:55;101703.78;;;6.18;100.00
64827;BME280;51265;53.972;12.286;2023-05-07T04:08:21;101707.03;;;6.15;100.00
64827;BME280;51265;53.972;12.286;2023-05-07T04:10:58;101705.25;;;6.09;100.00
64827;BME280;51265;53.972;12.286;2023-05-07T04:13:29;101713.34;;;6.04;100.00
64827;BME280;51265;53.972;12.286;2023-05-07T04:15:56;101711.44;;;6.04;100.00
64827;BME280;51265;53.972;12.286;2023-05-07T04:18:23;101717.00;;;6.09;100.00
64827;BME280;51265;53.972;12.286;2023-05-07T04:20:49;101720.34;;;6.11;100.00
64827;BME280;51265;53.972;12.286;2023-05-07T04:23:16;101720.69;;;6.15;100.00
64827;BME280;51265;53.972;12.286;2023-05-07T04:25:43;101727.81;;;6.16;100.00
64827;BME280;51265;53.972;12.286;2023-05-07T04:28:29;101715.81;;;6.17;100.00
64827;BME280;51265;53.972;12.286;2023-05-07T04:30:57;101719.72;;;6.21;100.00
64827;BME280;51265;53.972;12.286;2023-05-07T04:33:24;101720.88;;;6.25;100.00
64827;BME280;51265;53.972;12.286;2023-05-07T04:35:50;101719.94;;;6.31;100.00
64827;BME280;51265;53.972;12.286;2023-05-07T04:38:16;101727.72;;;6.39;100.00
64827;BME280;51265;53.972;12.286;2023-05-07T04:40:44;101728.06;;;6.43;100.00
64827;BME280;51265;53.972;12.286;2023-05-07T04:43:15;101735.06;;;6.51;100.00
64827;BME280;51265;53.972;12.286;2023-05-07T04:45:47;101737.66;;;6.57;100.00
64827;BME280;51265;53.972;12.286;2023-05-07T04:48:13;101741.06;;;6.64;100.00
64827;BME280;51265;53.972;12.286;2023-05-07T04:50:42;101754.13;;;6.74;100.00
64827;BME280;51265;53.972;12.286;2023-05-07T04:53:09;101738.03;;;6.78;100.00
64827;BME280;51265;53.972;12.286;2023-05-07T04:55:35;101736.78;;;6.85;100.00
64827;BME280;51265;53.972;12.286;2023-05-07T04:58:02;101732.81;;;6.93;100.00
64827;BME280;51265;53.972;12.286;2023-05-07T05:00:30;101737.81;;;6.96;100.00
64827;BME280;51265;53.972;12.286;2023-05-07T05:02:58;101731.50;;;6.95;100.00
64827;BME280;51265;53.972;12.286;2023-05-07T05:05:24;101732.75;;;7.05;100.00
64827;BME280;51265;53.972;12.286;2023-05-07T05:07:53;101726.88;;;7.13;100.00
64827;BME280;51265;53.972;12.286;2023-05-07T05:10:21;101729.19;;;7.21;100.00
64827;BME280;51265;53.972;12.286;2023-05-07T05:12:49;101728.19;;;7.27;100.00
64827;BME280;51265;53.972;12.286;2023-05-07T05:15:16;101730.19;;;7.32;100.00
64827;BME280;51265;53.972;12.286;2023-05-07T05:17:42;101724.78;;;7.37;100.00
64827;BME280;51265;53.972;12.286;2023-05-07T05:20:08;101735.31;;;7.45;100.00
64827;BME280;51265;53.972;12.286;2023-05-07T05:22:37;101736.81;;;7.53;100.00
64827;BME280;51265;53.972;12.286;2023-05-07T05:25:03;101732.22;;;7.58;100.00
64827;BME280;51265;53.972;12.286;2023-05-07T05:27:30;101729.47;;;7.75;100.00
64827;BME280;51265;53.972;12.286;2023-05-07T05:29:56;101733.56;;;7.94;100.00
64827;BME280;51265;53.972;12.286;2023-05-07T05:32:22;101732.38;;;8.07;100.00
64827;BME280;51265;53.972;12.286;2023-05-07T05:34:51;101724.38;;;8.06;100.00
64827;BME280;51265;53.972;12.286;2023-05-07T05:37:17;101723.34;;;8.12;100.00
64827;BME280;51265;53.972;12.286;2023-05-07T05:39:44;101725.22;;;8.28;100.00
64827;BME280;51265;53.972;12.286;2023-05-07T05:42:10;101715.22;;;8.44;100.00
64827;BME280;51265;53.972;12.286;2023-05-07T05:44:36;101717.47;;;8.47;100.00
64827;BME280;51265;53.972;12.286;2023-05-07T05:47:03;101715.41;;;8.59;100.00
64827;BME280;51265;53.972;12.286;2023-05-07T05:49:30;101718.78;;;8.66;100.00
64827;BME280;51265;53.972;12.286;2023-05-07T05:51:56;101716.41;;;8.75;100.00
64827;BME280;51265;53.972;12.286;2023-05-07T05:54:23;101710.78;;;8.65;100.00
64827;BME280;51265;53.972;12.286;2023-05-07T05:56:50;101721.16;;;8.58;100.00
64827;BME280;51265;53.972;12.286;2023-05-07T05:59:16;101714.63;;;8.64;100.00
64827;BME280;51265;53.972;12.286;2023-05-07T06:01:42;101721.84;;;8.70;100.00
64827;BME280;51265;53.972;12.286;2023-05-07T06:04:09;101714.78;;;8.79;100.00
64827;BME280;51265;53.972;12.286;2023-05-07T06:06:35;101715.97;;;8.88;100.00
64827;BME280;51265;53.972;12.286;2023-05-07T06:09:02;101702.31;;;8.98;100.00
64827;BME280;51265;53.972;12.286;2023-05-07T06:11:36;101710.91;;;9.07;100.00
64827;BME280;51265;53.972;12.286;2023-05-07T06:14:02;101711.31;;;9.26;100.00
64827;BME280;51265;53.972;12.286;2023-05-07T06:16:30;101721.53;;;9.31;100.00
64827;BME280;51265;53.972;12.286;2023-05-07T06:18:57;101716.34;;;9.34;100.00
64827;BME280;51265;53.972;12.286;2023-05-07T06:21:23;101709.81;;;9.45;100.00
64827;BME280;51265;53.972;12.286;2023-05-07T06:23:50;101708.75;;;9.52;100.00
64827;BME280;51265;53.972;12.286;2023-05-07T06:26:18;101713.47;;;9.61;100.00
64827;BME280;51265;53.972;12.286;2023-05-07T06:28:46;101714.97;;;9.79;100.00
64827;BME280;51265;53.972;12.286;2023-05-07T06:31:16;101721.31;;;9.85;100.00
64827;BME280;51265;53.972;12.286;2023-05-07T06:33:49;101715.00;;;9.84;100.00
64827;BME280;51265;53.972;12.286;2023-05-07T06:36:15;101711.47;;;9.94;100.00
64827;BME280;51265;53.972;12.286;2023-05-07T06:38:42;101710.41;;;10.00;100.00
64827;BME280;51265;53.972;12.286;2023-05-07T06:41:09;101702.47;;;10.09;100.00
64827;BME280;51265;53.972;12.286;2023-05-07T06:43:37;101706.34;;;10.18;100.00
64827;BME280;51265;53.972;12.286;2023-05-07T06:46:22;101701.94;;;10.17;100.00
64827;BME280;51265;53.972;12.286;2023-05-07T06:48:49;101704.81;;;10.47;100.00
64827;BME280;51265;53.972;12.286;2023-05-07T06:51:15;101696.00;;;10.56;100.00
64827;BME280;51265;53.972;12.286;2023-05-07T06:53:41;101691.34;;;10.66;100.00
64827;BME280;51265;53.972;12.286;2023-05-07T06:56:10;101682.28;;;10.66;100.00
64827;BME280;51265;53.972;12.286;2023-05-07T06:58:37;101678.69;;;10.91;100.00
64827;BME280;51265;53.972;12.286;2023-05-07T07:01:04;101674.00;;;11.02;100.00
64827;BME280;51265;53.972;12.286;2023-05-07T07:03:32;101669.03;;;11.14;100.00
64827;BME280;51265;53.972;12.286;2023-05-07T07:05:58;101667.91;;;11.30;100.00
64827;BME280;51265;53.972;12.286;2023-05-07T07:08:25;101647.81;;;11.25;99.75
64827;BME280;51265;53.972;12.286;2023-05-07T07:10:52;101655.19;;;11.39;100.00
64827;BME280;51265;53.972;12.286;2023-05-07T07:13:18;101650.75;;;11.48;99.54
64827;BME280;51265;53.972;12.286;2023-05-07T07:15:45;101647.19;;;11.48;98.64
64827;BME280;51265;53.972;12.286;2023-05-07T07:18:11;101648.28;;;11.52;96.94
64827;BME280;51265;53.972;12.286;2023-05-07T07:20:38;101639.16;;;11.57;95.28
64827;BME280;51265;53.972;12.286;2023-05-07T07:23:07;101635.78;;;11.75;95.46
64827;BME280;51265;53.972;12.286;2023-05-07T07:25:33;101618.41;;;11.69;94.40
64827;BME280;51265;53.972;12.286;2023-05-07T07:27:59;101624.78;;;11.65;93.05
64827;BME280;51265;53.972;12.286;2023-05-07T07:30:27;101615.91;;;11.73;92.92
64827;BME280;51265;53.972;12.286;2023-05-07T07:32:54;101621.44;;;11.83;92.55
64827;BME280;51265;53.972;12.286;2023-05-07T07:35:21;101620.81;;;11.96;92.25
64827;BME280;51265;53.972;12.286;2023-05-07T07:37:48;101635.56;;;12.26;92.36
64827;BME280;51265;53.972;12.286;2023-05-07T07:40:16;101600.00;;;12.14;89.70
64827;BME280;51265;53.972;12.286;2023-05-07T07:42:43;101589.25;;;12.13;89.04
64827;BME280;51265;53.972;12.286;2023-05-07T07:45:11;101609.03;;;12.30;89.46
64827;BME280;51265;53.972;12.286;2023-05-07T07:47:42;101597.56;;;12.47;88.43
64827;BME280;51265;53.972;12.286;2023-05-07T07:50:09;101580.69;;;12.49;86.85
64827;BME280;51265;53.972;12.286;2023-05-07T07:52:35;101563.56;;;12.52;85.13
64827;BME280;51265;53.972;12.286;2023-05-07T07:55:01;101573.97;;;12.60;85.51
64827;BME280;51265;53.972;12.286;2023-05-07T07:57:28;101560.41;;;12.63;85.00
64827;BME280;51265;53.972;12.286;2023-05-07T07:59:55;101558.97;;;12.71;84.36
64827;BME280;51265;53.972;12.286;2023-05-07T08:02:21;101536.06;;;12.65;81.72
64827;BME280;51265;53.972;12.286;2023-05-07T08:04:48;101543.03;;;12.87;81.77
64827;BME280;51265;53.972;12.286;2023-05-07T08:07:15;101550.88;;;13.04;81.75
64827;BME280;51265;53.972;12.286;2023-05-07T08:09:44;101552.00;;;13.03;82.25
64827;BME280;51265;53.972;12.286;2023-05-07T08:12:11;101546.94;;;13.39;80.75
64827;BME280;51265;53.972;12.286;2023-05-07T08:14:38;101538.31;;;13.40;79.91
64827;BME280;51265;53.972;12.286;2023-05-07T08:17:06;101498.31;;;13.33;77.41
64827;BME280;51265;53.972;12.286;2023-05-07T08:19:34;101473.44;;;13.04;74.82
64827;BME280;51265;53.972;12.286;2023-05-07T08:22:03;101484.81;;;13.02;75.28
64827;BME280;51265;53.972;12.286;2023-05-07T08:24:30;101488.75;;;13.20;74.98
64827;BME280;51265;53.972;12.286;2023-05-07T08:26:56;101478.50;;;13.44;74.79
64827;BME280;51265;53.972;12.286;2023-05-07T08:29:23;101449.50;;;13.18;73.19
64827;BME280;51265;53.972;12.286;2023-05-07T08:31:49;101489.66;;;13.39;75.09
64827;BME280;51265;53.972;12.286;2023-05-07T08:34:15;101488.41;;;13.51;75.06
64827;BME280;51265;53.972;12.286;2023-05-07T08:36:44;101484.91;;;13.64;74.44
64827;BME280;51265;53.972;12.286;2023-05-07T08:39:15;101496.03;;;13.78;75.30
64827;BME280;51265;53.972;12.286;2023-05-07T08:41:48;101499.91;;;13.95;75.85
64827;BME280;51265;53.972;12.286;2023-05-07T08:44:14;101504.28;;;14.02;74.89
64827;BME280;51265;53.972;12.286;2023-05-07T08:46:45;101480.91;;;14.08;73.60
64827;BME280;51265;53.972;12.286;2023-05-07T08:49:15;101503.56;;;14.29;74.19
64827;BME280;51265;53.972;12.286;2023-05-07T08:51:42;101506.66;;;14.41;73.84
64827;BME280;51265;53.972;12.286;2023-05-07T08:54:08;101486.09;;;14.28;72.70
64827;BME280;51265;53.972;12.286;2023-05-07T08:56:35;101484.66;;;14.50;72.57
64827;BME280;51265;53.972;12.286;2023-05-07T08:59:01;101466.22;;;14.26;71.68
64827;BME280;51265;53.972;12.286;2023-05-07T09:01:29;101476.84;;;14.19;72.50
64827;BME280;51265;53.972;12.286;2023-05-07T09:03:57;101481.78;;;14.22;72.95
64827;BME280;51265;53.972;12.286;2023-05-07T09:06:25;101489.59;;;14.53;72.75
64827;BME280;51265;53.972;12.286;2023-05-07T09:08:53;101480.47;;;14.66;73.05
64827;BME280;51265;53.972;12.286;2023-05-07T09:11:23;101482.38;;;14.84;71.58
64827;BME280;51265;53.972;12.286;2023-05-07T09:13:54;101462.44;;;14.68;71.47
64827;BME280;51265;53.972;12.286;2023-05-07T09:16:23;101475.16;;;14.83;72.39
64827;BME280;51265;53.972;12.286;2023-05-07T09:18:51;101465.81;;;14.79;72.05
64827;BME280;51265;53.972;12.286;2023-05-07T09:21:19;101460.19;;;14.84;71.66
64827;BME280;51265;53.972;12.286;2023-05-07T09:23:51;101466.16;;;15.05;71.74
64827;BME280;51265;53.972;12.286;2023-05-07T09:26:24;101455.75;;;14.83;71.54
64827;BME280;51265;53.972;12.286;2023-05-07T09:28:51;101461.72;;;15.18;71.30
64827;BME280;51265;53.972;12.286;2023-05-07T09:31:17;101450.38;;;15.28;70.38
64827;BME280;51265;53.972;12.286;2023-05-07T09:33:44;101450.69;;;15.40;69.62
64827;BME280;51265;53.972;12.286;2023-05-07T09:36:12;101440.19;;;15.37;69.62
64827;BME280;51265;53.972;12.286;2023-05-07T09:38:41;101440.59;;;15.44;69.47
64827;BME280;51265;53.972;12.286;2023-05-07T09:41:10;101420.69;;;15.42;67.87
64827;BME280;51265;53.972;12.286;2023-05-07T09:43:57;101412.50;;;15.10;68.33
64827;BME280;51265;53.972;12.286;2023-05-07T09:46:31;101423.38;;;15.20;68.40
64827;BME280;51265;53.972;12.286;2023-05-07T09:49:06;101414.72;;;15.35;67.88
64827;BME280;51265;53.972;12.286;2023-05-07T09:51:45;101430.41;;;15.54;68.13
64827;BME280;51265;53.972;12.286;2023-05-07T09:54:12;101413.00;;;15.62;66.71
64827;BME280;51265;53.972;12.286;2023-05-07T09:56:45;101425.00;;;15.71;67.31
64827;BME280;51265;53.972;12.286;2023-05-07T09:59:15;101411.78;;;15.90;66.89
64827;BME280;51265;53.972;12.286;2023-05-07T10:01:44;101416.47;;;15.81;67.43
64827;BME280;51265;53.972;12.286;2023-05-07T10:04:11;101407.25;;;15.72;66.60
64827;BME280;51265;53.972;12.286;2023-05-07T10:06:39;101406.59;;;15.75;66.34
64827;BME280;51265;53.972;12.286;2023-05-07T10:09:06;101406.91;;;15.96;66.33
64827;BME280;51265;53.972;12.286;2023-05-07T10:11:34;101390.44;;;15.77;65.19
64827;BME280;51265;53.972;12.286;2023-05-07T10:14:02;101394.63;;;15.88;64.93
64827;BME280;51265;53.972;12.286;2023-05-07T10:16:34;101400.59;;;16.27;65.04
64827;BME280;51265;53.972;12.286;2023-05-07T10:19:03;101388.56;;;16.40;64.44
64827;BME280;51265;53.972;12.286;2023-05-07T10:21:30;101370.81;;;16.27;63.78
64827;BME280;51265;53.972;12.286;2023-05-07T10:24:05;101389.91;;;16.51;63.86
64827;BME280;51265;53.972;12.286;2023-05-07T10:26:42;101371.47;;;16.64;63.58
64827;BME280;51265;53.972;12.286;2023-05-07T10:29:24;101376.13;;;16.77;62.65
64827;BME280;51265;53.972;12.286;2023-05-07T10:31:59;101367.22;;;17.06;62.26
64827;BME280;51265;53.972;12.286;2023-05-07T10:34:40;101350.78;;;16.87;61.28
64827;BME280;51265;53.972;12.286;2023-05-07T10:37:09;101331.81;;;16.89;60.45
64827;BME280;51265;53.972;12.286;2023-05-07T10:39:40;101340.50;;;16.97;60.81
64827;BME280;51265;53.972;12.286;2023-05-07T10:42:11;101363.31;;;17.33;61.32
64827;BME280;51265;53.972;12.286;2023-05-07T10:44:39;101360.22;;;17.43;60.67
64827;BME280;51265;53.972;12.286;2023-05-07T10:47:12;101312.53;;;17.02;59.45
64827;BME280;51265;53.972;12.286;2023-05-07T10:52:20;101332.03;;;17.19;59.44
64827;BME280;51265;53.972;12.286;2023-05-07T10:58:26;101327.44;;;17.75;58.21
64827;BME280;51265;53.972;12.286;2023-05-07T11:01:00;101323.34;;;17.81;57.85
64827;BME280;51265;53.972;12.286;2023-05-07T11:03:33;101310.66;;;17.92;57.41
64827;BME280;51265;53.972;12.286;2023-05-07T11:06:14;101310.13;;;18.16;56.75
64827;BME280;51265;53.972;12.286;2023-05-07T11:08:58;101309.22;;;18.33;56.43
64827;BME280;51265;53.972;12.286;2023-05-07T11:11:45;101318.00;;;18.53;56.38
64827;BME280;51265;53.972;12.286;2023-05-07T11:17:12;101294.31;;;18.59;55.04
64827;BME280;51265;53.972;12.286;2023-05-07T11:19:49;101275.06;;;18.45;54.94
64827;BME280;51265;53.972;12.286;2023-05-07T11:25:19;101286.56;;;18.73;54.31
64827;BME280;51265;53.972;12.286;2023-05-07T11:27:47;101270.78;;;18.48;53.83
64827;BME280;51265;53.972;12.286;2023-05-07T11:30:17;101276.88;;;18.41;54.20
64827;BME280;51265;53.972;12.286;2023-05-07T11:32:47;101297.41;;;18.96;53.91
64827;BME280;51265;53.972;12.286;2023-05-07T11:35:16;101298.22;;;19.17;53.48
64827;BME280;51265;53.972;12.286;2023-05-07T11:37:44;101284.75;;;19.19;53.00
64827;BME280;51265;53.972;12.286;2023-05-07T11:40:12;101262.00;;;19.29;52.40
64827;BME280;51265;53.972;12.286;2023-05-07T11:42:40;101248.53;;;19.10;52.11
64827;BME280;51265;53.972;12.286;2023-05-07T11:45:10;101231.75;;;18.69;51.65
64827;BME280;51265;53.972;12.286;2023-05-07T11:47:36;101257.19;;;18.67;52.66
64827;BME280;51265;53.972;12.286;2023-05-07T11:50:04;101282.00;;;18.60;53.10
64827;BME280;51265;53.972;12.286;2023-05-07T11:52:32;101271.94;;;18.76;52.62
64827;BME280;51265;53.972;12.286;2023-05-07T11:54:59;101265.16;;;18.86;52.66
64827;BME280;51265;53.972;12.286;2023-05-07T11:57:26;101271.84;;;18.94;52.07
64827;BME280;51265;53.972;12.286;2023-05-07T11:59:56;101263.63;;;18.88;52.35
64827;BME280;51265;53.972;12.286;2023-05-07T12:02:24;101296.19;;;19.26;52.38
64827;BME280;51265;53.972;12.286;2023-05-07T12:04:51;101275.75;;;19.34;51.76
64827;BME280;51265;53.972;12.286;2023-05-07T12:07:17;101291.50;;;19.72;51.30
64827;BME280;51265;53.972;12.286;2023-05-07T12:09:45;101277.63;;;20.09;50.15
64827;BME280;51265;53.972;12.286;2023-05-07T12:12:11;101270.66;;;20.15;50.31
64827;BME280;51265;53.972;12.286;2023-05-07T12:14:39;101249.88;;;19.92;49.88
64827;BME280;51265;53.972;12.286;2023-05-07T12:17:10;101256.47;;;19.75;49.88
64827;BME280;51265;53.972;12.286;2023-05-07T12:19:38;101254.16;;;19.56;50.31
64827;BME280;51265;53.972;12.286;2023-05-07T12:22:05;101263.13;;;19.82;49.94
64827;BME280;51265;53.972;12.286;2023-05-07T12:24:49;101239.13;;;19.69;49.39
64827;BME280;51265;53.972;12.286;2023-05-07T12:27:22;101278.31;;;20.30;49.58
64827;BME280;51265;53.972;12.286;2023-05-07T12:29:50;101291.03;;;20.89;49.03
64827;BME280;51265;53.972;12.286;2023-05-07T12:32:17;101246.09;;;20.98;47.67
64827;BME280;51265;53.972;12.286;2023-05-07T12:34:45;101203.28;;;20.57;46.82
64827;BME280;51265;53.972;12.286;2023-05-07T12:37:12;101203.75;;;20.22;47.57
64827;BME280;51265;53.972;12.286;2023-05-07T12:39:46;101220.06;;;20.32;47.57
64827;BME280;51265;53.972;12.286;2023-05-07T12:42:19;101232.06;;;20.45;47.96
64827;BME280;51265;53.972;12.286;2023-05-07T12:44:49;101218.88;;;20.70;47.28
64827;BME280;51265;53.972;12.286;2023-05-07T12:47:15;101203.59;;;20.43;47.07
64827;BME280;51265;53.972;12.286;2023-05-07T12:49:41;101218.66;;;20.63;47.09
64827;BME280;51265;53.972;12.286;2023-05-07T12:52:08;101228.66;;;20.76;47.15
64827;BME280;51265;53.972;12.286;2023-05-07T12:54:37;101199.19;;;20.54;46.89
64827;BME280;51265;53.972;12.286;2023-05-07T12:57:06;101223.25;;;20.96;46.49
64827;BME280;51265;53.972;12.286;2023-05-07T12:59:40;101233.31;;;21.53;45.76
64827;BME280;51265;53.972;12.286;2023-05-07T13:02:07;101195.50;;;21.47;44.43